createdAt,value
2022-08-03T00:00:42.390Z,17.80
2022-08-03T00:03:15.821Z,17.80
2022-08-03T00:06:04.784Z,17.80
2022-08-03T00:08:37.723Z,17.80
2022-08-03T00:11:11.096Z,17.80
2022-08-03T00:13:39.230Z,17.70
2022-08-03T00:16:07.335Z,17.70
2022-08-03T00:18:35.386Z,17.70
2022-08-03T00:21:06.422Z,17.60
2022-08-03T00:23:51.481Z,17.60
2022-08-03T00:26:21.526Z,17.60
2022-08-03T00:28:50.909Z,17.60
2022-08-03T00:31:34.583Z,17.60
2022-08-03T00:34:13.254Z,17.60
2022-08-03T00:36:42.562Z,17.60
2022-08-03T00:39:12.980Z,17.60
2022-08-03T00:41:41.092Z,17.70
2022-08-03T00:44:11.306Z,17.70
2022-08-03T00:46:39.328Z,17.70
2022-08-03T00:49:09.883Z,17.80
2022-08-03T00:51:40.178Z,17.80
2022-08-03T00:54:08.143Z,17.80
2022-08-03T00:56:36.564Z,17.80
2022-08-03T00:59:07.326Z,17.80
2022-08-03T01:01:35.350Z,17.80
2022-08-03T01:04:05.852Z,17.60
2022-08-03T01:06:43.759Z,17.70
2022-08-03T01:09:23.435Z,17.60
2022-08-03T01:12:00.020Z,17.70
2022-08-03T01:14:36.619Z,17.70
2022-08-03T01:17:10.869Z,17.70
2022-08-03T01:19:45.833Z,17.70
2022-08-03T01:22:24.337Z,17.60
2022-08-03T01:25:16.605Z,17.60
2022-08-03T01:28:04.062Z,17.50
2022-08-03T01:30:33.883Z,17.50
2022-08-03T01:33:02.507Z,17.50
2022-08-03T01:35:38.550Z,17.40
2022-08-03T01:38:11.906Z,17.40
2022-08-03T01:40:41.139Z,17.40
2022-08-03T01:43:15.509Z,17.40
2022-08-03T01:46:03.930Z,17.30
2022-08-03T01:48:32.662Z,17.30
2022-08-03T01:51:01.794Z,17.20
2022-08-03T01:53:34.259Z,17.20
2022-08-03T01:56:03.806Z,17.20
2022-08-03T01:58:32.651Z,17.10
2022-08-03T02:01:01.971Z,17.00
2022-08-03T02:03:30.768Z,17.00
2022-08-03T02:06:40.964Z,16.90
2022-08-03T02:08:54.684Z,16.90
2022-08-03T02:11:22.782Z,16.90
2022-08-03T02:13:51.519Z,16.90
2022-08-03T02:16:19.946Z,16.90
2022-08-03T02:18:51.112Z,16.80
2022-08-03T02:21:55.491Z,16.80
2022-08-03T02:24:08.901Z,16.80
2022-08-03T02:26:38.866Z,16.80
2022-08-03T02:29:16.849Z,16.80
2022-08-03T02:31:45.739Z,16.90
2022-08-03T02:34:14.743Z,16.90
2022-08-03T02:36:43.461Z,16.90
2022-08-03T02:39:12.059Z,16.90
2022-08-03T02:41:46.741Z,16.80
2022-08-03T02:44:18.992Z,16.80
2022-08-03T02:46:47.625Z,16.80
2022-08-03T02:49:40.690Z,16.80
2022-08-03T02:52:15.792Z,16.80
2022-08-03T02:54:46.679Z,16.70
2022-08-03T02:57:20.175Z,16.60
2022-08-03T02:59:48.736Z,16.60
2022-08-03T03:02:17.688Z,16.60
2022-08-03T03:05:50.633Z,16.50
2022-08-03T03:07:52.110Z,16.50
2022-08-03T03:10:27.424Z,16.50
2022-08-03T03:12:59.783Z,16.40
2022-08-03T03:15:29.512Z,16.40
2022-08-03T03:17:58.513Z,16.40
2022-08-03T03:20:30.670Z,16.50
2022-08-03T03:22:59.361Z,16.40
2022-08-03T03:25:31.890Z,16.40
2022-08-03T03:28:00.573Z,16.40
2022-08-03T03:30:30.339Z,16.40
2022-08-03T03:32:59.204Z,16.40
2022-08-03T03:35:30.105Z,16.40
2022-08-03T03:38:00.402Z,16.40
2022-08-03T03:40:28.532Z,16.40
2022-08-03T03:42:59.585Z,16.50
2022-08-03T03:45:28.354Z,16.50
2022-08-03T03:47:56.250Z,16.60
2022-08-03T03:50:26.648Z,16.70
2022-08-03T03:52:54.639Z,16.70
2022-08-03T03:55:22.825Z,16.70
2022-08-03T03:57:53.220Z,16.70
2022-08-03T04:00:21.507Z,16.80
2022-08-03T04:02:52.304Z,16.70
2022-08-03T04:05:45.875Z,16.70
2022-08-03T04:08:36.451Z,16.70
2022-08-03T04:11:29.323Z,16.70
2022-08-03T04:14:01.934Z,16.60
2022-08-03T04:16:32.272Z,16.60
2022-08-03T04:19:05.167Z,16.70
2022-08-03T04:21:36.012Z,16.70
2022-08-03T04:24:04.628Z,16.70
2022-08-03T04:26:34.233Z,16.60
2022-08-03T04:29:03.142Z,16.70
2022-08-03T04:31:33.421Z,16.70
2022-08-03T04:34:02.226Z,16.70
2022-08-03T04:36:34.104Z,16.80
2022-08-03T04:39:08.898Z,16.90
2022-08-03T04:42:07.594Z,17.00
2022-08-03T04:44:31.835Z,17.00
2022-08-03T04:47:00.413Z,17.20
2022-08-03T04:49:34.587Z,17.40
2022-08-03T04:52:05.516Z,17.50
2022-08-03T04:54:40.784Z,17.60
2022-08-03T04:57:22.269Z,17.70
2022-08-03T05:00:01.689Z,17.80
2022-08-03T05:02:32.542Z,18.00
2022-08-03T05:05:00.712Z,18.30
2022-08-03T05:07:35.695Z,18.40
2022-08-03T05:10:11.702Z,18.60
2022-08-03T05:12:43.627Z,18.80
2022-08-03T05:15:12.107Z,18.90
2022-08-03T05:17:40.124Z,19.00
2022-08-03T05:20:08.454Z,19.30
2022-08-03T05:22:36.459Z,19.40
2022-08-03T05:25:06.991Z,19.50
2022-08-03T05:27:35.023Z,19.50
2022-08-03T05:30:30.501Z,19.50
2022-08-03T05:32:52.124Z,19.60
2022-08-03T05:36:01.088Z,19.60
2022-08-03T05:38:12.011Z,19.60
2022-08-03T05:40:46.863Z,19.60
2022-08-03T05:43:28.839Z,19.60
2022-08-03T05:46:11.757Z,19.50
2022-08-03T05:48:40.912Z,19.50
2022-08-03T05:51:12.128Z,19.40
2022-08-03T05:53:43.206Z,19.40
2022-08-03T05:56:14.261Z,19.40
2022-08-03T05:58:47.259Z,19.50
2022-08-03T06:01:16.730Z,19.50
2022-08-03T06:03:45.707Z,19.60
2022-08-03T06:06:14.105Z,19.80
2022-08-03T06:08:45.986Z,19.90
2022-08-03T06:11:14.039Z,20.10
2022-08-03T06:13:42.471Z,20.30
2022-08-03T06:16:10.603Z,20.50
2022-08-03T06:18:38.881Z,20.80
2022-08-03T06:21:14.366Z,21.00
2022-08-03T06:23:52.778Z,21.20
2022-08-03T06:26:28.881Z,21.40
2022-08-03T06:28:57.157Z,21.60
2022-08-03T06:31:32.689Z,21.50
2022-08-03T06:34:33.441Z,21.60
2022-08-03T06:37:01.696Z,21.50
2022-08-03T06:39:30.930Z,21.50
2022-08-03T06:42:00.097Z,21.60
2022-08-03T06:44:28.179Z,21.60
2022-08-03T06:46:56.294Z,21.70
2022-08-03T06:49:31.085Z,21.80
2022-08-03T06:52:05.914Z,22.00
2022-08-03T06:54:35.760Z,22.10
2022-08-03T06:57:08.528Z,22.30
2022-08-03T07:00:08.338Z,22.50
2022-08-03T07:02:30.212Z,22.70
2022-08-03T07:04:58.744Z,22.80
2022-08-03T07:07:27.383Z,22.80
2022-08-03T07:10:00.380Z,22.90
2022-08-03T07:12:34.622Z,22.90
2022-08-03T07:15:03.557Z,22.90
2022-08-03T07:17:34.125Z,23.00
2022-08-03T07:20:03.515Z,23.10
2022-08-03T07:22:32.612Z,23.00
2022-08-03T07:25:00.763Z,23.10
2022-08-03T07:27:31.218Z,23.20
2022-08-03T07:29:59.358Z,23.60
2022-08-03T07:32:28.867Z,24.20
2022-08-03T07:35:00.577Z,24.40
2022-08-03T07:37:30.033Z,24.60
2022-08-03T07:40:01.310Z,24.70
2022-08-03T07:42:29.495Z,24.80
2022-08-03T07:44:58.030Z,24.90
2022-08-03T07:47:35.703Z,25.30
2022-08-03T07:50:08.826Z,25.40
2022-08-03T07:52:49.683Z,25.40
2022-08-03T07:55:22.055Z,25.50
2022-08-03T07:58:03.478Z,25.50
2022-08-03T08:00:36.872Z,25.50
2022-08-03T08:03:05.633Z,25.90
2022-08-03T08:05:34.215Z,26.60
2022-08-03T08:08:02.736Z,26.30
2022-08-03T08:10:31.150Z,26.10
2022-08-03T08:12:59.326Z,25.90
2022-08-03T08:15:27.455Z,25.70
2022-08-03T08:18:01.000Z,25.60
2022-08-03T08:20:32.622Z,25.60
2022-08-03T08:23:06.954Z,25.40
2022-08-03T08:25:47.957Z,25.30
2022-08-03T08:28:29.975Z,25.10
2022-08-03T08:31:01.737Z,25.10
2022-08-03T08:36:26.909Z,25.00
2022-08-03T08:38:55.083Z,25.10
2022-08-03T08:41:32.044Z,25.10
2022-08-03T08:44:00.542Z,25.20
2022-08-03T08:46:32.302Z,26.10
2022-08-03T08:49:04.568Z,26.60
2022-08-03T08:51:51.049Z,26.30
2022-08-03T08:54:30.257Z,26.20
2022-08-03T08:57:02.093Z,26.00
2022-08-03T08:59:48.229Z,25.90
2022-08-03T09:02:20.419Z,25.80
2022-08-03T09:04:51.107Z,27.10
2022-08-03T09:07:20.438Z,28.30
2022-08-03T09:10:08.388Z,30.40
2022-08-03T09:12:51.506Z,32.30
2022-08-03T09:15:31.799Z,33.80
2022-08-03T09:18:01.299Z,34.50
2022-08-03T09:20:33.840Z,35.20
2022-08-03T09:23:18.995Z,35.70
2022-08-03T09:26:00.379Z,36.20
2022-08-03T09:28:59.894Z,36.60
2022-08-03T09:31:35.494Z,37.10
2022-08-03T09:34:08.271Z,37.40
2022-08-03T09:36:44.037Z,37.70
2022-08-03T09:39:16.599Z,37.80
2022-08-03T09:41:46.528Z,38.00
2022-08-03T09:44:24.640Z,38.00
2022-08-03T09:46:56.368Z,38.30
2022-08-03T09:49:25.347Z,38.50
2022-08-03T09:52:31.804Z,38.70
2022-08-03T09:54:43.250Z,38.80
2022-08-03T09:57:22.293Z,39.00
2022-08-03T09:59:51.179Z,39.10
2022-08-03T10:02:25.374Z,39.00
2022-08-03T10:04:54.092Z,39.30
2022-08-03T10:07:23.493Z,39.50
2022-08-03T10:10:30.495Z,39.60
2022-08-03T10:12:49.441Z,39.90
2022-08-03T10:16:23.785Z,40.00
2022-08-03T10:18:05.998Z,40.20
2022-08-03T10:20:46.351Z,40.50
2022-08-03T10:23:15.453Z,40.40
2022-08-03T10:25:44.323Z,40.70
2022-08-03T10:28:17.435Z,40.80
2022-08-03T10:30:51.236Z,40.90
2022-08-03T10:33:51.197Z,41.00
2022-08-03T10:36:17.155Z,41.10
2022-08-03T10:38:52.849Z,41.40
2022-08-03T10:41:22.430Z,41.50
2022-08-03T10:43:53.398Z,41.50
2022-08-03T10:46:24.217Z,41.20
2022-08-03T10:48:53.141Z,41.40
2022-08-03T10:51:21.469Z,40.90
2022-08-03T10:53:54.845Z,39.00
2022-08-03T10:56:50.987Z,37.80
2022-08-03T10:59:37.903Z,37.90
2022-08-03T11:02:08.751Z,38.00
2022-08-03T11:04:39.064Z,38.50
2022-08-03T11:07:17.604Z,39.40
2022-08-03T11:09:48.830Z,38.60
2022-08-03T11:12:31.749Z,39.50
2022-08-03T11:15:07.328Z,40.20
2022-08-03T11:17:46.806Z,40.80
2022-08-03T11:20:42.880Z,41.30
2022-08-03T11:23:10.982Z,40.40
2022-08-03T11:25:57.659Z,40.50
2022-08-03T11:28:28.971Z,41.30
2022-08-03T11:30:59.217Z,41.90
2022-08-03T11:33:31.099Z,42.40
2022-08-03T11:36:00.461Z,42.80
2022-08-03T11:38:30.824Z,43.00
2022-08-03T11:40:58.897Z,43.30
2022-08-03T11:43:30.806Z,43.00
2022-08-03T11:46:07.976Z,42.00
2022-08-03T11:48:46.289Z,42.10
2022-08-03T11:51:28.178Z,42.70
2022-08-03T11:53:57.395Z,42.70
2022-08-03T11:56:28.636Z,41.50
2022-08-03T11:59:20.283Z,41.60
2022-08-03T12:01:47.110Z,42.30
2022-08-03T12:04:16.668Z,42.70
2022-08-03T12:07:05.031Z,41.70
2022-08-03T12:09:36.529Z,40.40
2022-08-03T12:12:04.777Z,40.90
2022-08-03T12:14:48.519Z,41.50
2022-08-03T12:17:22.478Z,42.10
2022-08-03T12:19:50.795Z,42.00
2022-08-03T12:22:31.089Z,41.60
2022-08-03T12:25:02.302Z,40.70
2022-08-03T12:27:33.165Z,40.10
2022-08-03T12:30:02.006Z,40.30
2022-08-03T12:32:30.730Z,39.70
2022-08-03T12:35:02.292Z,38.80
2022-08-03T12:37:31.376Z,38.00
2022-08-03T12:40:10.177Z,37.40
2022-08-03T12:42:39.693Z,37.10
2022-08-03T12:45:23.999Z,37.00
2022-08-03T12:48:01.942Z,36.80
2022-08-03T12:50:34.193Z,37.30
2022-08-03T12:53:03.557Z,39.00
2022-08-03T12:55:57.844Z,40.10
2022-08-03T12:58:36.234Z,39.80
2022-08-03T13:01:10.054Z,39.50
2022-08-03T13:03:43.640Z,39.30
2022-08-03T13:06:22.418Z,38.80
2022-08-03T13:08:52.131Z,38.20
2022-08-03T13:11:47.609Z,37.90
2022-08-03T13:14:20.756Z,37.60
2022-08-03T13:16:49.554Z,38.80
2022-08-03T13:19:17.891Z,39.80
2022-08-03T13:22:03.411Z,40.70
2022-08-03T13:24:33.516Z,41.10
2022-08-03T13:28:00.959Z,41.20
2022-08-03T13:29:51.143Z,40.40
2022-08-03T13:32:22.357Z,39.10
2022-08-03T13:34:50.493Z,38.10
2022-08-03T13:37:18.613Z,37.30
2022-08-03T13:39:59.675Z,36.70
2022-08-03T13:42:38.851Z,36.90
2022-08-03T13:45:12.511Z,38.10
2022-08-03T13:47:40.744Z,39.00
2022-08-03T13:50:08.832Z,39.70
2022-08-03T13:52:37.110Z,40.30
2022-08-03T13:55:06.117Z,40.90
2022-08-03T13:58:11.734Z,41.20
2022-08-03T14:00:27.574Z,41.50
2022-08-03T14:03:16.073Z,41.50
2022-08-03T14:05:48.041Z,41.40
2022-08-03T14:08:16.595Z,41.50
2022-08-03T14:10:46.876Z,41.30
2022-08-03T14:13:17.495Z,40.60
2022-08-03T14:15:49.870Z,40.10
2022-08-03T14:18:28.622Z,40.30
2022-08-03T14:21:05.900Z,40.20
2022-08-03T14:23:35.603Z,39.30
2022-08-03T14:26:06.676Z,38.70
2022-08-03T14:28:34.995Z,38.10
2022-08-03T14:31:03.057Z,37.60
2022-08-03T14:33:31.066Z,37.20
2022-08-03T14:35:59.150Z,36.90
2022-08-03T14:38:27.253Z,36.60
2022-08-03T14:40:55.966Z,36.70
2022-08-03T14:43:26.802Z,36.40
2022-08-03T14:46:02.443Z,37.00
2022-08-03T14:50:29.669Z,38.00
2022-08-03T14:51:20.166Z,38.40
2022-08-03T14:53:48.513Z,37.70
2022-08-03T14:56:16.667Z,37.30
2022-08-03T14:58:44.657Z,37.50
2022-08-03T15:02:02.545Z,37.50
2022-08-03T15:04:05.715Z,37.80
2022-08-03T15:06:33.773Z,37.80
2022-08-03T15:09:21.447Z,37.80
2022-08-03T15:11:50.826Z,37.60
2022-08-03T15:14:33.249Z,37.10
2022-08-03T15:20:00.464Z,36.60
2022-08-03T15:22:39.942Z,36.80
2022-08-03T15:26:29.293Z,36.90
2022-08-03T15:28:04.760Z,36.30
2022-08-03T15:30:37.973Z,35.70
2022-08-03T15:33:06.395Z,35.20
2022-08-03T15:35:34.670Z,34.80
2022-08-03T15:38:09.206Z,34.40
2022-08-03T15:40:38.037Z,34.30
2022-08-03T15:43:06.093Z,34.10
2022-08-03T15:45:37.201Z,33.90
2022-08-03T15:48:05.998Z,33.70
2022-08-03T15:50:36.813Z,33.60
2022-08-03T15:53:05.152Z,33.40
2022-08-03T15:55:34.117Z,33.20
2022-08-03T15:59:10.240Z,33.10
2022-08-03T16:00:50.068Z,32.90
2022-08-03T16:03:18.047Z,32.80
2022-08-03T16:05:46.508Z,32.60
2022-08-03T16:08:16.735Z,32.40
2022-08-03T16:10:47.043Z,32.20
2022-08-03T16:13:16.644Z,32.00
2022-08-03T16:15:44.968Z,31.70
